createdAt,value
2022-10-01T00:01:24.577Z,13.53
2022-10-01T00:03:51.557Z,14.90
2022-10-01T00:06:21.622Z,14.10
2022-10-01T00:08:51.300Z,14.93
2022-10-01T00:11:22.770Z,15.20
2022-10-01T00:13:51.909Z,14.60
2022-10-01T00:16:22.247Z,15.10
2022-10-01T00:18:50.864Z,14.80
2022-10-01T00:21:28.121Z,14.57
2022-10-01T00:24:05.235Z,13.57
2022-10-01T00:26:37.862Z,14.37
2022-10-01T00:29:13.232Z,14.20
2022-10-01T00:31:41.208Z,13.60
2022-10-01T00:34:08.274Z,13.47
2022-10-01T00:36:35.539Z,15.90
2022-10-01T00:39:02.583Z,12.53
2022-10-01T00:41:33.163Z,13.70
2022-10-01T00:44:30.154Z,14.17
2022-10-01T00:47:11.524Z,14.07
2022-10-01T00:49:41.161Z,13.43
2022-10-01T00:52:17.028Z,15.27
2022-10-01T00:55:00.119Z,15.30
2022-10-01T00:57:28.030Z,12.93
2022-10-01T00:59:58.253Z,13.70
2022-10-01T01:02:25.504Z,13.83
2022-10-01T01:04:52.522Z,13.00
2022-10-01T01:07:20.504Z,12.20
2022-10-01T01:09:49.841Z,17.50
2022-10-01T01:12:31.645Z,13.43
2022-10-01T01:15:29.298Z,13.67
2022-10-01T01:18:28.314Z,11.90
2022-10-01T01:21:01.073Z,14.30
2022-10-01T01:23:42.019Z,12.57
2022-10-01T01:26:31.281Z,13.50
2022-10-01T01:29:21.829Z,14.20
2022-10-01T01:31:49.946Z,12.47
2022-10-01T01:34:27.624Z,14.90
2022-10-01T01:37:12.181Z,13.73
2022-10-01T01:39:45.412Z,13.67
2022-10-01T01:42:24.198Z,12.87
2022-10-01T01:44:58.413Z,13.13
2022-10-01T01:47:29.768Z,14.37
2022-10-01T01:49:58.638Z,12.23
2022-10-01T01:52:26.268Z,19.73
2022-10-01T01:54:55.497Z,13.17
2022-10-01T01:57:23.480Z,12.63
2022-10-01T01:59:50.439Z,13.77
2022-10-01T02:02:23.886Z,11.63
2022-10-01T02:05:00.888Z,13.07
2022-10-01T02:08:03.741Z,13.07
2022-10-01T02:10:59.024Z,12.00
2022-10-01T02:13:46.974Z,11.93
2022-10-01T02:16:48.193Z,11.93
2022-10-01T02:19:40.519Z,12.57
2022-10-01T02:22:21.427Z,14.20
2022-10-01T02:24:58.351Z,12.00
2022-10-01T02:27:45.477Z,12.23
2022-10-01T02:30:13.627Z,12.00
2022-10-01T02:32:44.860Z,14.60
2022-10-01T02:35:17.269Z,16.00
2022-10-01T02:37:48.635Z,12.40
2022-10-01T02:40:20.893Z,12.13
2022-10-01T02:42:53.139Z,13.23
2022-10-01T02:45:23.771Z,12.37
2022-10-01T02:47:58.103Z,13.10
2022-10-01T02:50:37.474Z,12.53
2022-10-01T02:53:14.449Z,12.47
2022-10-01T02:55:43.577Z,11.70
2022-10-01T02:58:10.847Z,12.13
2022-10-01T03:00:37.813Z,13.90
2022-10-01T03:03:04.809Z,12.03
2022-10-01T03:05:31.735Z,12.50
2022-10-01T03:07:58.845Z,12.37
2022-10-01T03:10:25.835Z,12.73
2022-10-01T03:12:52.850Z,11.70
2022-10-01T03:15:20.506Z,12.07
2022-10-01T03:17:52.489Z,12.13
2022-10-01T03:20:19.530Z,12.20
2022-10-01T03:22:47.987Z,12.60
2022-10-01T03:25:15.885Z,14.93
2022-10-01T03:27:43.558Z,12.10
2022-10-01T03:30:12.181Z,12.77
2022-10-01T03:32:39.514Z,13.00
2022-10-01T03:35:07.693Z,12.17
2022-10-01T03:37:34.694Z,13.30
2022-10-01T03:40:01.976Z,11.67
2022-10-01T03:42:28.910Z,14.10
2022-10-01T03:44:56.213Z,12.40
2022-10-01T03:47:24.502Z,13.10
2022-10-01T03:49:51.491Z,12.57
2022-10-01T03:52:19.329Z,12.10
2022-10-01T03:54:46.335Z,14.10
2022-10-01T03:57:13.310Z,13.73
2022-10-01T03:59:40.293Z,12.87
2022-10-01T04:02:07.884Z,14.37
2022-10-01T04:04:34.983Z,14.00
2022-10-01T04:07:01.941Z,13.20
2022-10-01T04:09:28.924Z,13.97
2022-10-01T04:11:55.999Z,13.47
2022-10-01T04:14:23.010Z,13.50
2022-10-01T04:16:52.638Z,13.47
2022-10-01T04:19:20.681Z,14.07
2022-10-01T04:21:48.351Z,13.10
2022-10-01T04:24:15.410Z,14.20
2022-10-01T04:26:42.394Z,14.23
2022-10-01T04:29:09.954Z,13.20
2022-10-01T04:31:37.442Z,14.97
2022-10-01T04:34:04.888Z,15.17
2022-10-01T04:36:31.995Z,15.10
2022-10-01T04:39:02.007Z,14.97
2022-10-01T04:41:31.250Z,13.50
2022-10-01T04:44:02.240Z,16.27
2022-10-01T04:46:30.872Z,14.87
2022-10-01T04:48:58.884Z,14.67
2022-10-01T04:51:26.234Z,14.60
2022-10-01T04:53:53.204Z,13.17
2022-10-01T04:56:20.147Z,12.90
2022-10-01T04:58:48.695Z,12.47
2022-10-01T05:01:15.719Z,14.10
2022-10-01T05:03:42.825Z,13.43
2022-10-01T05:06:09.804Z,15.13
2022-10-01T05:08:37.722Z,13.70
2022-10-01T05:11:05.139Z,11.70
2022-10-01T05:13:32.178Z,13.83
2022-10-01T05:15:59.505Z,12.70
2022-10-01T05:18:26.680Z,13.87
2022-10-01T05:20:53.607Z,13.40
2022-10-01T05:23:20.551Z,13.63
2022-10-01T05:25:47.592Z,14.50
2022-10-01T05:28:21.329Z,15.50
2022-10-01T05:30:49.889Z,14.60
2022-10-01T05:33:17.156Z,17.03
2022-10-01T05:35:44.755Z,15.13
2022-10-01T05:38:11.749Z,16.07
2022-10-01T05:40:38.764Z,14.60
2022-10-01T05:43:05.664Z,16.10
2022-10-01T05:45:33.932Z,15.17
2022-10-01T05:48:07.209Z,16.00
2022-10-01T05:50:40.365Z,19.53
2022-10-01T05:53:10.562Z,16.30
2022-10-01T05:55:37.780Z,17.70
2022-10-01T05:58:07.858Z,18.47
2022-10-01T06:00:36.083Z,20.77
2022-10-01T06:03:05.411Z,23.60
2022-10-01T06:05:35.143Z,24.50
2022-10-01T06:08:06.929Z,23.03
2022-10-01T06:10:33.881Z,20.10
2022-10-01T06:13:05.900Z,22.13
2022-10-01T06:15:38.052Z,27.50
2022-10-01T06:18:10.745Z,19.53
2022-10-01T06:20:39.468Z,21.07
2022-10-01T06:23:12.283Z,23.57
2022-10-01T06:25:42.115Z,22.97
2022-10-01T06:28:12.398Z,19.73
2022-10-01T06:30:40.501Z,23.10
2022-10-01T06:33:11.697Z,21.00
2022-10-01T06:35:51.134Z,20.00
2022-10-01T06:38:21.439Z,19.27
2022-10-01T06:41:00.357Z,22.70
2022-10-01T06:43:30.093Z,18.00
2022-10-01T06:46:01.420Z,18.10
2022-10-01T06:48:31.312Z,18.97
2022-10-01T06:50:59.806Z,18.57
2022-10-01T06:53:28.875Z,17.57
2022-10-01T06:55:57.165Z,15.53
2022-10-01T06:58:28.299Z,17.50
2022-10-01T07:01:01.660Z,18.70
2022-10-01T07:03:31.494Z,17.33
2022-10-01T07:06:09.139Z,18.17
2022-10-01T07:08:36.099Z,17.27
2022-10-01T07:11:03.759Z,16.00
2022-10-01T07:13:30.974Z,17.07
2022-10-01T07:15:57.949Z,16.93
2022-10-01T07:18:24.889Z,18.10
2022-10-01T07:20:51.809Z,16.50
2022-10-01T07:23:19.312Z,17.27
2022-10-01T07:25:46.510Z,19.13
2022-10-01T07:28:20.315Z,22.13
2022-10-01T07:31:11.495Z,20.20
2022-10-01T07:33:39.565Z,22.53
2022-10-01T07:36:09.668Z,21.80
2022-10-01T07:38:36.628Z,19.33
2022-10-01T07:41:04.824Z,22.23
2022-10-01T07:43:33.464Z,20.27
2022-10-01T07:46:02.263Z,19.97
2022-10-01T07:48:29.534Z,17.23
2022-10-01T07:50:57.952Z,22.40
2022-10-01T07:53:25.952Z,19.43
2022-10-01T07:55:52.990Z,20.40
2022-10-01T07:58:24.453Z,17.30
2022-10-01T08:00:56.312Z,18.47
2022-10-01T08:03:23.875Z,17.27
2022-10-01T08:05:53.143Z,17.23
2022-10-01T08:08:20.027Z,16.60
2022-10-01T08:10:47.281Z,14.50
2022-10-01T08:13:16.896Z,15.47
2022-10-01T08:15:53.731Z,15.90
2022-10-01T08:18:24.340Z,13.47
2022-10-01T08:20:51.319Z,13.53
2022-10-01T08:23:18.896Z,13.87
2022-10-01T08:25:47.989Z,15.00
2022-10-01T08:28:15.543Z,14.80
2022-10-01T08:30:43.270Z,15.37
2022-10-01T08:33:12.193Z,14.40
2022-10-01T08:35:40.911Z,13.83
2022-10-01T08:38:08.462Z,13.70
2022-10-01T08:40:42.700Z,13.13
2022-10-01T08:43:38.534Z,12.53
2022-10-01T08:46:13.920Z,10.77
2022-10-01T08:48:56.893Z,11.50
2022-10-01T08:51:31.232Z,19.33
2022-10-01T08:54:14.828Z,10.27
2022-10-01T08:56:46.520Z,11.43
2022-10-01T08:59:32.903Z,12.93
2022-10-01T09:02:00.062Z,10.60
2022-10-01T09:04:28.568Z,10.10
2022-10-01T09:07:34.819Z,10.60
2022-10-01T09:10:20.197Z,9.87
2022-10-01T09:13:08.554Z,10.40
2022-10-01T09:15:49.930Z,10.47
2022-10-01T09:18:51.541Z,12.17
2022-10-01T09:21:43.634Z,9.67
2022-10-01T09:24:23.059Z,10.67
2022-10-01T09:26:50.067Z,10.80
2022-10-01T09:29:46.697Z,9.80
2022-10-01T09:32:20.991Z,12.70
2022-10-01T09:34:48.489Z,13.13
2022-10-01T09:37:39.225Z,9.40
2022-10-01T09:40:23.925Z,8.03
2022-10-01T09:42:52.363Z,9.37
2022-10-01T09:45:21.191Z,8.53
2022-10-01T09:47:52.742Z,8.97
2022-10-01T09:50:40.165Z,7.70
2022-10-01T09:53:20.340Z,10.53
2022-10-01T09:55:55.206Z,7.90
2022-10-01T09:58:27.142Z,7.83
2022-10-01T10:00:56.840Z,7.47
2022-10-01T10:03:31.167Z,7.93
2022-10-01T10:06:00.252Z,7.73
2022-10-01T10:08:34.764Z,6.30
2022-10-01T10:11:22.033Z,7.93
2022-10-01T10:13:56.253Z,6.90
2022-10-01T10:16:35.755Z,7.13
2022-10-01T10:19:16.474Z,7.30
2022-10-01T10:21:53.481Z,6.10
2022-10-01T10:24:40.666Z,6.07
2022-10-01T10:27:28.175Z,6.03
2022-10-01T10:30:16.160Z,5.57
2022-10-01T10:32:46.098Z,5.43
2022-10-01T10:35:29.140Z,5.50
2022-10-01T10:37:57.644Z,5.63
2022-10-01T10:40:51.356Z,4.73
2022-10-01T10:43:30.693Z,4.30
2022-10-01T10:45:59.101Z,5.97
2022-10-01T10:48:36.572Z,5.70
2022-10-01T10:51:06.112Z,4.70
2022-10-01T10:53:45.681Z,4.40
2022-10-01T10:56:22.810Z,3.80
2022-10-01T10:58:52.114Z,3.97
2022-10-01T11:01:31.831Z,3.87
2022-10-01T11:04:01.506Z,4.03
2022-10-01T11:06:28.847Z,3.43
2022-10-01T11:09:07.873Z,3.43
2022-10-01T11:11:49.947Z,3.00
2022-10-01T11:15:17.165Z,4.23
2022-10-01T11:18:21.840Z,3.10
2022-10-01T11:20:54.468Z,3.30
2022-10-01T11:23:55.734Z,3.40
2022-10-01T11:27:06.933Z,3.37
2022-10-01T11:29:59.091Z,3.30
2022-10-01T11:32:36.342Z,3.50
2022-10-01T11:35:08.931Z,3.97
2022-10-01T11:37:43.576Z,3.30
2022-10-01T11:40:34.025Z,3.40
2022-10-01T11:43:28.124Z,3.87
2022-10-01T11:46:09.097Z,2.60
2022-10-01T11:49:18.022Z,3.27
2022-10-01T11:52:09.208Z,2.83
2022-10-01T11:54:56.073Z,3.57
2022-10-01T11:57:43.450Z,3.70
2022-10-01T12:00:15.312Z,5.70
2022-10-01T12:03:01.439Z,2.73
2022-10-01T12:05:32.231Z,2.40
2022-10-01T12:08:31.567Z,2.80
2022-10-01T12:11:16.430Z,5.20
2022-10-01T12:14:02.545Z,2.40
2022-10-01T12:16:38.445Z,1.53
2022-10-01T12:19:17.698Z,1.77
2022-10-01T12:22:01.299Z,2.27
2022-10-01T12:24:39.405Z,1.30
2022-10-01T12:27:30.723Z,1.53
2022-10-01T12:30:08.866Z,1.70
2022-10-01T12:33:05.002Z,1.90
2022-10-01T12:36:03.409Z,1.80
2022-10-01T12:39:08.572Z,2.13
2022-10-01T12:41:53.651Z,3.67
2022-10-01T12:44:47.263Z,1.80
2022-10-01T12:47:36.645Z,2.00
2022-10-01T12:50:44.810Z,1.63
2022-10-01T12:53:36.225Z,2.90
2022-10-01T12:56:30.300Z,2.70
2022-10-01T12:59:53.758Z,2.33
2022-10-01T13:02:42.117Z,2.60
2022-10-01T13:05:20.226Z,2.30
2022-10-01T13:08:07.864Z,2.30
2022-10-01T13:11:03.979Z,3.07
2022-10-01T13:13:35.791Z,3.90
2022-10-01T13:16:37.400Z,3.93
2022-10-01T13:19:17.543Z,3.10
2022-10-01T13:22:14.952Z,3.87
2022-10-01T13:25:01.039Z,3.87
2022-10-01T13:27:36.419Z,4.30
2022-10-01T13:30:23.167Z,4.50
2022-10-01T13:32:58.809Z,4.17
2022-10-01T13:35:34.372Z,4.13
2022-10-01T13:38:15.565Z,13.40
2022-10-01T13:40:43.260Z,7.20
2022-10-01T13:43:20.637Z,4.80
2022-10-01T13:45:51.859Z,4.00
2022-10-01T13:48:32.552Z,4.33
2022-10-01T13:51:07.354Z,4.97
2022-10-01T13:53:44.306Z,4.80
2022-10-01T13:56:32.714Z,5.40
2022-10-01T13:59:03.317Z,5.50
2022-10-01T14:01:48.957Z,5.40
2022-10-01T14:04:20.273Z,5.30
2022-10-01T14:06:59.315Z,4.93
2022-10-01T14:09:43.354Z,4.27
2022-10-01T14:12:50.651Z,3.90
2022-10-01T14:15:38.586Z,4.63
2022-10-01T14:18:37.187Z,4.97
2022-10-01T14:21:38.953Z,5.67
2022-10-01T14:24:09.895Z,5.73
2022-10-01T14:26:53.821Z,6.80
2022-10-01T14:29:36.897Z,6.23
2022-10-01T14:32:22.651Z,5.87
2022-10-01T14:35:34.365Z,6.23
2022-10-01T14:38:14.984Z,5.93
2022-10-01T14:40:48.137Z,5.40
2022-10-01T14:43:25.480Z,6.37
2022-10-01T14:46:06.924Z,4.90
2022-10-01T14:48:38.399Z,5.37
2022-10-01T14:51:21.320Z,4.97
2022-10-01T14:53:49.605Z,5.10
2022-10-01T14:56:18.085Z,6.07
2022-10-01T14:58:53.937Z,5.23
2022-10-01T15:01:26.090Z,7.17
2022-10-01T15:03:54.978Z,7.80
2022-10-01T15:06:28.394Z,8.27
2022-10-01T15:09:09.154Z,8.30
2022-10-01T15:11:44.603Z,9.27
2022-10-01T15:14:24.831Z,8.10
2022-10-01T15:16:55.119Z,9.23
2022-10-01T15:19:35.978Z,8.70
2022-10-01T15:22:09.576Z,7.73
2022-10-01T15:24:46.966Z,7.57
2022-10-01T15:27:22.064Z,7.63
2022-10-01T15:30:03.824Z,8.37
2022-10-01T15:32:37.350Z,8.07
2022-10-01T15:35:09.049Z,8.67
2022-10-01T15:37:38.066Z,7.40
2022-10-01T15:40:35.104Z,9.00
2022-10-01T15:43:09.344Z,9.30
2022-10-01T15:45:52.027Z,7.67
2022-10-01T15:48:46.294Z,8.10
2022-10-01T15:51:33.311Z,9.33
2022-10-01T15:54:11.344Z,10.30
2022-10-01T15:56:43.686Z,11.23
2022-10-01T15:59:25.126Z,10.60
2022-10-01T16:01:53.801Z,11.50
2022-10-01T16:04:23.556Z,12.50
2022-10-01T16:07:09.202Z,13.57
2022-10-01T16:10:08.575Z,12.80
2022-10-01T16:12:46.110Z,11.73
2022-10-01T16:15:38.733Z,14.00
2022-10-01T16:18:22.564Z,11.23
2022-10-01T16:20:58.298Z,10.93
2022-10-01T16:23:49.661Z,10.07
2022-10-01T16:26:28.592Z,10.33
2022-10-01T16:29:00.838Z,11.10
2022-10-01T16:31:30.641Z,9.63
2022-10-01T16:33:58.108Z,10.10
2022-10-01T16:36:26.469Z,10.40
2022-10-01T16:38:53.570Z,10.60
2022-10-01T16:41:26.354Z,9.63
2022-10-01T16:43:56.440Z,8.50
2022-10-01T16:46:23.664Z,10.17
2022-10-01T16:48:51.837Z,10.53
2022-10-01T16:51:19.932Z,10.60
2022-10-01T16:53:47.193Z,9.50
2022-10-01T16:56:14.536Z,10.80
2022-10-01T16:58:43.666Z,10.20
2022-10-01T17:01:14.866Z,9.27
2022-10-01T17:03:51.925Z,6.13
2022-10-01T17:06:19.000Z,6.77
2022-10-01T17:08:46.032Z,4.77
2022-10-01T17:11:13.049Z,3.17
2022-10-01T17:13:40.010Z,2.53
2022-10-01T17:16:08.037Z,11.13
2022-10-01T17:18:35.070Z,2.43
2022-10-01T17:21:05.954Z,3.80
2022-10-01T17:23:35.329Z,4.10
2022-10-01T17:26:05.683Z,2.37
2022-10-01T17:28:32.717Z,2.80
2022-10-01T17:30:59.718Z,3.50
2022-10-01T17:33:27.430Z,2.00
2022-10-01T17:35:55.984Z,1.83
2022-10-01T17:38:23.903Z,2.30
2022-10-01T17:40:56.478Z,1.43
2022-10-01T17:43:23.797Z,1.43
2022-10-01T17:46:00.586Z,1.50
2022-10-01T17:48:30.303Z,1.93
2022-10-01T17:51:10.391Z,1.20
2022-10-01T17:53:42.488Z,1.10
2022-10-01T17:56:15.944Z,1.30
2022-10-01T17:58:45.946Z,1.50
2022-10-01T18:01:22.805Z,1.23
2022-10-01T18:03:57.929Z,1.40
2022-10-01T18:06:25.787Z,1.30
2022-10-01T18:08:56.333Z,1.60
2022-10-01T18:11:27.222Z,1.73
2022-10-01T18:13:54.708Z,1.67
2022-10-01T18:16:23.937Z,2.23
2022-10-01T18:21:49.384Z,2.43
2022-10-01T18:24:17.753Z,2.23
2022-10-01T18:26:46.998Z,1.47
2022-10-01T18:29:27.636Z,1.40
2022-10-01T18:32:02.827Z,1.50
2022-10-01T18:34:50.407Z,1.50
2022-10-01T18:37:44.444Z,7.90
2022-10-01T18:40:30.741Z,1.73
2022-10-01T18:43:15.282Z,1.17
2022-10-01T18:46:19.469Z,1.27
2022-10-01T18:49:17.757Z,1.10
2022-10-01T18:52:04.184Z,1.33
2022-10-01T18:55:04.768Z,1.43
2022-10-01T18:57:55.372Z,1.20
2022-10-01T19:00:24.426Z,2.60
2022-10-01T19:03:20.289Z,1.30
2022-10-01T19:06:22.798Z,1.30
2022-10-01T19:09:00.394Z,1.60
2022-10-01T19:11:46.674Z,2.20
2022-10-01T19:14:51.706Z,1.50
2022-10-01T19:17:48.471Z,1.60
2022-10-01T19:21:01.803Z,1.57
2022-10-01T19:23:47.830Z,1.80
2022-10-01T19:26:34.994Z,1.40
2022-10-01T19:29:43.576Z,3.00
2022-10-01T19:32:17.663Z,1.60
2022-10-01T19:35:13.683Z,1.43
2022-10-01T19:37:49.053Z,1.10
2022-10-01T19:40:34.179Z,0.90
2022-10-01T19:43:37.333Z,0.90
2022-10-01T19:46:36.715Z,0.90
2022-10-01T19:49:10.123Z,0.90
2022-10-01T19:52:24.346Z,0.80
2022-10-01T19:55:00.426Z,0.77
2022-10-01T19:57:30.353Z,1.40
2022-10-01T20:00:12.336Z,1.00
2022-10-01T20:03:11.291Z,0.90
2022-10-01T20:06:06.107Z,0.80
2022-10-01T20:08:42.439Z,0.90
2022-10-01T20:11:58.205Z,1.10
2022-10-01T20:15:03.723Z,1.10
2022-10-01T20:17:51.251Z,0.80
2022-10-01T20:20:57.061Z,0.80
2022-10-01T20:23:42.836Z,1.97
2022-10-01T20:26:54.121Z,1.23
2022-10-01T20:29:43.570Z,1.07
2022-10-01T20:32:26.197Z,0.90
2022-10-01T20:35:04.378Z,0.97
2022-10-01T20:38:04.400Z,0.80
2022-10-01T20:40:49.967Z,1.00
2022-10-01T20:43:28.997Z,1.00
2022-10-01T20:45:56.499Z,0.90
2022-10-01T20:48:35.693Z,1.73
2022-10-01T20:51:29.865Z,0.90
2022-10-01T20:54:10.758Z,1.30
2022-10-01T20:57:05.548Z,0.77
2022-10-01T20:59:44.678Z,1.27
2022-10-01T21:02:42.267Z,0.90
2022-10-01T21:05:36.520Z,0.90
2022-10-01T21:08:29.756Z,0.90
2022-10-01T21:11:25.964Z,0.80
2022-10-01T21:14:18.501Z,0.87
2022-10-01T21:17:05.395Z,1.63
2022-10-01T21:20:23.402Z,0.70
2022-10-01T21:23:17.385Z,1.30
2022-10-01T21:26:36.986Z,0.87
2022-10-01T21:29:56.426Z,0.83
2022-10-01T21:32:50.821Z,2.03
2022-10-01T21:35:35.397Z,2.83
2022-10-01T21:38:35.487Z,1.23
2022-10-01T21:41:19.212Z,1.00
2022-10-01T21:44:31.540Z,0.90
2022-10-01T21:47:04.384Z,1.00
2022-10-01T21:50:19.274Z,1.10
2022-10-01T21:53:10.514Z,0.93
2022-10-01T21:55:53.779Z,1.43
2022-10-01T21:58:58.658Z,2.03
2022-10-01T22:01:49.968Z,1.27
2022-10-01T22:04:20.992Z,0.87
2022-10-01T22:07:13.288Z,3.30
2022-10-01T22:09:43.225Z,1.03
2022-10-01T22:12:11.388Z,1.10
2022-10-01T22:14:40.673Z,0.80
2022-10-01T22:17:26.397Z,1.00
2022-10-01T22:19:57.283Z,1.10
2022-10-01T22:22:37.213Z,1.00
2022-10-01T22:25:07.633Z,1.73
2022-10-01T22:27:37.848Z,0.77
2022-10-01T22:30:19.406Z,1.33
2022-10-01T22:33:29.985Z,0.80
2022-10-01T22:36:13.942Z,0.70
2022-10-01T22:38:54.356Z,1.30
2022-10-01T22:41:36.335Z,1.10
2022-10-01T22:44:18.359Z,1.20
2022-10-01T22:47:12.695Z,0.80
2022-10-01T22:50:03.978Z,1.53
2022-10-01T22:52:52.645Z,1.73
2022-10-01T22:55:51.076Z,0.90
2022-10-01T22:58:49.096Z,0.63
2022-10-01T23:01:44.233Z,2.23
2022-10-01T23:04:46.279Z,1.03
2022-10-01T23:07:45.138Z,1.00
2022-10-01T23:10:30.194Z,1.13
2022-10-01T23:13:17.313Z,1.43
2022-10-01T23:15:53.305Z,1.77
2022-10-01T23:18:55.748Z,0.90
2022-10-01T23:21:43.938Z,0.87
2022-10-01T23:24:29.777Z,0.80
2022-10-01T23:27:46.471Z,1.97
2022-10-01T23:30:20.325Z,1.70
2022-10-01T23:33:11.228Z,1.90
2022-10-01T23:36:21.885Z,1.00
2022-10-01T23:39:26.785Z,1.80
2022-10-01T23:42:24.919Z,1.40
2022-10-01T23:45:21.843Z,1.87
2022-10-01T23:48:02.249Z,1.30
2022-10-01T23:50:47.469Z,0.93
2022-10-01T23:54:04.825Z,1.57
2022-10-01T23:56:53.615Z,1.33
2022-10-01T23:59:45.134Z,1.47
